Time;durP1;ratioP1;P1;durP2;ratioP2;P2;SDS_P1;SDS_P2;PMS_P1;PMS_P2;Temp;Humidity;BMP_temperature;BMP_pressure;BME280_temperature;BME280_humidity;BME280_pressure;Samples;Min_cycle;Max_cycle;Signal;HPM_P1;HPM_P2
2023/08/13 00:07:17;;;;;;;0.73;0.40;;;;;;;;;;21058964;28;20757;-78
2023/08/13 00:17:19;;;;;;;0.35;0.30;;;;;;;;;;21076178;28;20218;-79
2023/08/13 00:27:21;;;;;;;1.02;0.52;;;;;;;;;;21036237;28;20580;-78
2023/08/13 00:37:22;;;;;;;0.45;0.30;;;;;;;;;;20992256;28;20211;-77
2023/08/13 00:47:24;;;;;;;0.98;0.40;;;;;;;;;;21034549;28;20221;-77
2023/08/13 00:57:26;;;;;;;2.40;0.40;;;;;;;;;;21072189;28;20228;-77
2023/08/13 01:07:31;;;;;;;0.43;0.30;;;;;;;;;;21076028;28;20251;-78
2023/08/13 01:17:35;;;;;;;0.77;0.30;;;;;;;;;;21057747;28;20221;-77
2023/08/13 01:27:51;;;;;;;2.22;0.30;;;23.00;99.90;;;;;;21034021;28;20229;-77
2023/08/13 01:37:54;;;;;;;0.70;0.50;;;23.00;99.90;;;;;;20985040;28;20214;-79
2023/08/13 01:47:56;;;;;;;0.50;0.40;;;;;;;;;;21045148;28;20225;-79
2023/08/13 01:57:58;;;;;;;0.60;0.40;;;;;;;;;;21030044;28;20216;-78
2023/08/13 02:08:00;;;;;;;0.80;0.50;;;;;;;;;;21012393;28;20278;-78
2023/08/13 02:18:01;;;;;;;2.30;0.40;;;;;;;;;;21072355;28;20205;-77
2023/08/13 02:28:04;;;;;;;1.58;0.50;;;;;;;;;;21073023;28;20228;-78
2023/08/13 02:38:06;;;;;;;0.70;0.40;;;;;;;;;;21050615;28;20695;-77
2023/08/13 02:48:08;;;;;;;0.45;0.30;;;;;;;;;;21040023;28;20605;-78
2023/08/13 02:58:09;;;;;;;1.75;0.60;;;;;;;;;;21064287;28;20217;-78
2023/08/13 03:08:11;;;;;;;0.73;0.50;;;;;;;;;;21057361;28;20224;-79
2023/08/13 03:18:13;;;;;;;0.43;0.40;;;;;;;;;;21023462;28;20208;-78
2023/08/13 03:28:19;;;;;;;0.93;0.50;;;;;;;;;;21028440;28;20219;-78
2023/08/13 03:38:22;;;;;;;1.25;0.50;;;;;;;;;;21065482;28;20296;-78
2023/08/13 03:48:23;;;;;;;0.93;0.63;;;;;;;;;;21053877;28;20224;-78
2023/08/13 03:58:26;;;;;;;0.75;0.57;;;;;;;;;;21056252;28;20292;-79
2023/08/13 04:08:27;;;;;;;0.80;0.50;;;;;;;;;;20930814;22;20286;-73
2023/08/13 04:18:30;;;;;;;1.13;0.50;;;;;;;;;;20974232;28;20771;-73
2023/08/13 04:28:32;;;;;;;1.00;0.53;;;;;;;;;;20892636;28;20263;-73
2023/08/13 04:38:34;;;;;;;0.40;0.40;;;;;;;;;;20813790;28;20216;-73
2023/08/13 04:48:47;;;;;;;2.45;0.75;;;21.80;99.90;;;;;;20910214;28;20637;-75
2023/08/13 04:58:48;;;;;;;1.87;0.60;;;;;;;;;;20825827;28;20244;-74
2023/08/13 05:08:51;;;;;;;0.77;0.60;;;;;;;;;;20859191;28;20221;-74
2023/08/13 05:18:54;;;;;;;2.27;0.60;;;;;;;;;;20792683;28;20270;-74
2023/08/13 05:28:56;;;;;;;0.80;0.50;;;;;;;;;;20889436;28;20221;-76
2023/08/13 05:38:58;;;;;;;2.30;0.50;;;;;;;;;;20809368;28;20213;-73
2023/08/13 05:49:00;;;;;;;1.20;0.53;;;;;;;;;;20899231;28;20285;-74
2023/08/13 05:59:01;;;;;;;0.93;0.57;;;;;;;;;;20841342;28;20215;-75
2023/08/13 06:09:03;;;;;;;2.05;0.60;;;22.40;99.90;;;;;;20864212;28;20213;-74
2023/08/13 06:19:05;;;;;;;0.82;0.50;;;;;;;;;;20907493;28;20602;-73
2023/08/13 06:29:07;;;;;;;2.17;1.52;;;;;;;;;;20921861;28;20244;-73
2023/08/13 06:39:08;;;;;;;3.28;0.65;;;;;;;;;;20887247;28;20269;-74
2023/08/13 06:49:10;;;;;;;0.90;0.50;;;;;;;;;;20917395;28;20208;-73
2023/08/13 06:59:12;;;;;;;0.50;0.40;;;;;;;;;;20886074;28;20215;-72
2023/08/13 07:09:13;;;;;;;1.55;0.60;;;;;;;;;;20820617;28;20547;-73
2023/08/13 07:19:15;;;;;;;1.73;0.50;;;;;;;;;;20820324;28;20225;-72
2023/08/13 07:29:17;;;;;;;0.40;0.30;;;;;;;;;;20820135;28;20252;-72
2023/08/13 07:39:18;;;;;;;1.17;0.60;;;;;;;;;;20820135;28;20211;-72
2023/08/13 07:49:20;;;;;;;1.00;0.63;;;;;;;;;;20927042;28;20280;-74
2023/08/13 07:59:22;;;;;;;0.98;0.40;;;;;;;;;;20918091;28;20211;-73
2023/08/13 08:09:24;;;;;;;1.08;0.50;;;;;;;;;;20916693;28;20235;-73
2023/08/13 08:19:25;;;;;;;0.47;0.43;;;;;;;;;;20916746;28;20251;-71
2023/08/13 08:29:27;;;;;;;3.17;0.70;;;;;;;;;;20915157;28;20285;-71
2023/08/13 08:39:29;;;;;;;1.63;0.80;;;;;;;;;;20915533;28;20772;-71
2023/08/13 08:49:31;;;;;;;0.50;0.50;;;24.50;99.90;;;;;;20909346;28;20276;-72
2023/08/13 08:59:33;;;;;;;1.25;0.50;;;;;;;;;;20912266;28;20266;-72
2023/08/13 09:09:36;;;;;;;1.73;0.60;;;;;;;;;;20877387;28;20233;-72
2023/08/13 09:19:37;;;;;;;1.20;0.57;;;;;;;;;;20911472;28;20217;-72
2023/08/13 09:29:39;;;;;;;3.20;0.50;;;24.60;99.90;;;;;;20953599;28;20218;-72
2023/08/13 09:39:41;;;;;;;1.58;0.65;;;;;;;;;;20993281;28;20264;-73
2023/08/13 09:49:44;;;;;;;1.52;0.47;;;25.00;99.90;;;;;;20924715;28;20241;-72
2023/08/13 09:59:46;;;;;;;1.17;0.50;;;24.20;99.90;;;;;;20911933;28;20675;-71
2023/08/13 10:09:48;;;;;;;0.88;0.50;;;;;;;;;;20957296;22;20219;-73
2023/08/13 10:19:50;;;;;;;1.23;0.57;;;25.80;99.90;;;;;;20954411;28;20756;-72
2023/08/13 10:30:04;;;;;;;2.30;0.50;;;;;;;;;;20936993;28;20228;-73
2023/08/13 10:40:08;;;;;;;1.17;0.60;;;25.90;99.90;;;;;;20957261;28;20235;-73
2023/08/13 10:50:19;;;;;;;0.70;0.40;;;;;;;;;;20922457;28;20220;-73
2023/08/13 11:00:25;;;;;;;1.10;0.60;;;;;;;;;;20950829;28;20219;-73
2023/08/13 11:10:29;;;;;;;1.17;0.65;;;26.40;99.90;;;;;;20966497;28;20236;-73
2023/08/13 11:20:31;;;;;;;2.28;0.60;;;;;;;;;;20949172;28;20843;-73
2023/08/13 11:30:33;;;;;;;1.35;0.50;;;;;;;;;;20949406;28;20228;-73
2023/08/13 11:40:37;;;;;;;1.00;0.45;;;;;;;;;;20970758;28;20777;-73
2023/08/13 11:50:39;;;;;;;1.25;0.40;;;27.60;99.90;;;;;;20939380;28;20573;-75
2023/08/13 12:00:42;;;;;;;0.85;0.50;;;;;;;;;;20948538;28;20273;-75
2023/08/13 12:10:44;;;;;;;1.33;0.50;;;;;;;;;;20947567;28;20223;-74
2023/08/13 12:20:45;;;;;;;0.65;0.40;;;;;;;;;;20948062;28;20264;-75
2023/08/13 12:30:47;;;;;;;0.52;0.38;;;;;;;;;;20955798;28;20749;-74
2023/08/13 12:40:49;;;;;;;0.55;0.40;;;;;;;;;;20968939;28;20202;-75
2023/08/13 12:50:51;;;;;;;0.60;0.35;;;;;;;;;;20950227;28;20614;-76
2023/08/13 13:00:53;;;;;;;0.45;0.35;;;;;;;;;;20993810;28;20760;-75
2023/08/13 13:10:55;;;;;;;0.82;0.40;;;;;;;;;;20958851;28;20230;-74
2023/08/13 13:20:56;;;;;;;1.25;0.50;;;;;;;;;;20975466;28;20221;-77
2023/08/13 13:31:00;;;;;;;0.85;0.40;;;;;;;;;;20973958;28;20601;-74
2023/08/13 13:41:02;;;;;;;0.40;0.30;;;;;;;;;;20965514;28;20636;-74
2023/08/13 13:51:04;;;;;;;0.88;0.40;;;;;;;;;;20960111;28;20224;-75
2023/08/13 14:01:06;;;;;;;0.60;0.40;;;;;;;;;;20941722;28;20638;-75
2023/08/13 14:11:08;;;;;;;0.60;0.50;;;;;;;;;;20938037;28;20305;-74
2023/08/13 14:21:10;;;;;;;1.77;0.40;;;;;;;;;;20970543;28;20487;-75
2023/08/13 14:31:12;;;;;;;0.95;0.50;;;;;;;;;;20936523;28;20228;-76
2023/08/13 14:41:13;;;;;;;1.65;0.40;;;;;;;;;;20963316;28;20215;-74
2023/08/13 14:51:16;;;;;;;0.68;0.40;;;;;;;;;;20985030;28;20629;-74
2023/08/13 15:01:18;;;;;;;0.80;0.50;;;;;;;;;;20954774;28;20723;-75
2023/08/13 15:11:20;;;;;;;1.23;0.50;;;;;;;;;;20967406;28;20238;-73
2023/08/13 15:21:23;;;;;;;1.50;0.70;;;;;;;;;;20967622;28;20293;-75
2023/08/13 15:31:24;;;;;;;0.70;0.30;;;;;;;;;;20934364;28;20229;-73
2023/08/13 15:41:27;;;;;;;1.33;0.50;;;;;;;;;;20979841;28;20222;-75
2023/08/13 15:51:29;;;;;;;0.75;0.40;;;;;;;;;;20949801;28;20221;-74
2023/08/13 16:01:30;;;;;;;1.13;0.70;;;;;;;;;;20951711;28;20286;-74
2023/08/13 16:11:33;;;;;;;1.00;0.47;;;;;;;;;;21012640;22;20791;-77
2023/08/13 16:21:35;;;;;;;1.30;0.60;;;27.90;99.90;;;;;;21018731;28;20268;-77
2023/08/13 16:31:36;;;;;;;2.50;1.00;;;;;;;;;;20986380;28;20214;-77
2023/08/13 16:41:39;;;;;;;1.15;0.40;;;;;;;;;;20967348;28;20289;-77
2023/08/13 16:51:41;;;;;;;1.17;0.57;;;;;;;;;;20908139;28;20235;-80
2023/08/13 17:01:43;;;;;;;0.98;0.40;;;;;;;;;;20912564;28;20557;-77
2023/08/13 17:11:45;;;;;;;0.55;0.40;;;;;;;;;;20910282;28;20220;-77
2023/08/13 17:21:46;;;;;;;1.20;0.50;;;;;;;;;;20974263;28;20752;-77
2023/08/13 17:31:48;;;;;;;0.93;0.47;;;27.80;99.90;;;;;;20926786;28;20699;-76
2023/08/13 17:41:50;;;;;;;1.02;0.93;;;;;;;;;;20970808;28;20271;-79
2023/08/13 17:51:52;;;;;;;2.15;0.50;;;;;;;;;;20943608;28;20232;-81
2023/08/13 18:01:54;;;;;;;1.00;0.50;;;;;;;;;;20886446;28;20207;-78
2023/08/13 18:11:56;;;;;;;0.80;0.50;;;;;;;;;;20979995;28;20250;-78
2023/08/13 18:21:58;;;;;;;0.73;0.40;;;;;;;;;;20984382;28;20691;-78
2023/08/13 18:31:59;;;;;;;1.35;0.57;;;;;;;;;;20968746;28;20278;-79
2023/08/13 18:42:01;;;;;;;0.75;0.45;;;;;;;;;;20997537;28;20647;-78
2023/08/13 18:52:03;;;;;;;0.95;0.50;;;;;;;;;;20915013;28;20243;-78
2023/08/13 19:02:05;;;;;;;0.95;0.45;;;;;;;;;;20885223;28;20220;-78
2023/08/13 19:12:07;;;;;;;3.67;0.70;;;;;;;;;;20994741;28;20785;-78
2023/08/13 19:22:08;;;;;;;0.98;0.50;;;;;;;;;;20996423;28;20281;-78
2023/08/13 19:32:11;;;;;;;1.10;0.60;;;;;;;;;;20952563;28;20717;-78
2023/08/13 19:42:14;;;;;;;1.48;0.57;;;;;;;;;;20987050;28;20647;-79
2023/08/13 19:52:16;;;;;;;0.90;0.50;;;;;;;;;;20949843;28;20232;-79
2023/08/13 20:02:18;;;;;;;0.90;0.57;;;;;;;;;;20982178;28;20207;-76
2023/08/13 20:12:19;;;;;;;1.58;0.80;;;;;;;;;;20959412;28;20246;-76
2023/08/13 20:22:22;;;;;;;0.90;0.50;;;26.50;99.90;;;;;;20931843;28;20216;-78
2023/08/13 20:32:23;;;;;;;1.00;0.50;;;;;;;;;;20938124;28;20224;-80
2023/08/13 20:42:26;;;;;;;1.80;0.60;;;;;;;;;;20975192;28;20774;-78
2023/08/13 20:52:27;;;;;;;0.70;0.50;;;;;;;;;;20922795;28;20231;-76
2023/08/13 21:02:29;;;;;;;0.95;0.60;;;;;;;;;;20968616;28;20215;-76
2023/08/13 21:12:31;;;;;;;1.63;0.68;;;;;;;;;;20940285;28;20214;-77
2023/08/13 21:22:33;;;;;;;1.80;0.68;;;;;;;;;;20951772;28;20227;-78
2023/08/13 21:32:35;;;;;;;1.83;0.70;;;25.40;99.90;;;;;;20972926;28;20271;-78
2023/08/13 21:42:37;;;;;;;0.90;0.70;;;;;;;;;;20984692;28;20211;-79
2023/08/13 21:52:39;;;;;;;1.33;0.85;;;;;;;;;;20935856;28;20302;-79
2023/08/13 22:02:41;;;;;;;1.17;0.75;;;;;;;;;;20907687;28;20242;-78
2023/08/13 22:12:42;;;;;;;2.05;0.80;;;;;;;;;;20906980;28;20224;-78
2023/08/13 22:22:44;;;;;;;1.20;0.70;;;;;;;;;;20949859;22;20748;-75
2023/08/13 22:32:47;;;;;;;1.10;0.65;;;;;;;;;;21072592;27;20237;-75
2023/08/13 22:42:49;;;;;;;1.23;0.90;;;;;;;;;;21069611;27;20217;-75
2023/08/13 22:52:51;;;;;;;1.23;0.75;;;;;;;;;;21116014;28;20223;-75
2023/08/13 23:02:53;;;;;;;1.38;0.80;;;;;;;;;;21091720;28;20234;-75
2023/08/13 23:12:55;;;;;;;1.60;0.77;;;;;;;;;;21092869;28;20219;-73
2023/08/13 23:22:56;;;;;;;1.23;0.70;;;;;;;;;;21096218;28;20228;-73
2023/08/13 23:32:59;;;;;;;1.27;0.70;;;;;;;;;;21114608;28;20231;-73
2023/08/13 23:43:01;;;;;;;2.25;0.90;;;;;;;;;;21100678;28;20570;-73
2023/08/13 23:53:03;;;;;;;1.35;0.90;;;;;;;;;;21133061;28;20235;-73
